sensor_id;sensor_type;location;lat;lon;timestamp;pressure;altitude;pressure_sealevel;temperature
70415;BMP280;57837;52.064;113.478;2023-04-03T00:02:09;94555.72;;;-1.86
70415;BMP280;57837;52.064;113.478;2023-04-03T00:05:12;94560.00;;;-2.30
70415;BMP280;57837;52.064;113.478;2023-04-03T00:08:15;94562.56;;;-2.42
70415;BMP280;57837;52.064;113.478;2023-04-03T00:11:19;94560.16;;;-1.20
70415;BMP280;57837;52.064;113.478;2023-04-03T00:14:23;94564.38;;;1.52
70415;BMP280;57837;52.064;113.478;2023-04-03T00:17:27;94552.59;;;2.58
70415;BMP280;57837;52.064;113.478;2023-04-03T00:20:30;94554.88;;;3.54
70415;BMP280;57837;52.064;113.478;2023-04-03T00:23:34;94559.69;;;4.90
70415;BMP280;57837;52.064;113.478;2023-04-03T00:26:37;94552.66;;;5.05
70415;BMP280;57837;52.064;113.478;2023-04-03T00:29:40;94543.97;;;4.74
70415;BMP280;57837;52.064;113.478;2023-04-03T00:32:44;94555.19;;;5.19
70415;BMP280;57837;52.064;113.478;2023-04-03T00:35:48;94546.69;;;5.40
70415;BMP280;57837;52.064;113.478;2023-04-03T00:38:52;94554.31;;;5.50
70415;BMP280;57837;52.064;113.478;2023-04-03T00:41:56;94544.56;;;5.83
70415;BMP280;57837;52.064;113.478;2023-04-03T00:48:05;94548.72;;;6.18
70415;BMP280;57837;52.064;113.478;2023-04-03T00:51:22;94549.53;;;6.11
70415;BMP280;57837;52.064;113.478;2023-04-03T00:54:27;94547.59;;;6.63
70415;BMP280;57837;52.064;113.478;2023-04-03T00:57:31;94549.16;;;6.88
70415;BMP280;57837;52.064;113.478;2023-04-03T01:00:38;94550.03;;;6.77
70415;BMP280;57837;52.064;113.478;2023-04-03T01:03:43;94554.28;;;5.57
70415;BMP280;57837;52.064;113.478;2023-04-03T01:06:48;94548.69;;;4.86
70415;BMP280;57837;52.064;113.478;2023-04-03T01:09:53;94543.22;;;5.67
70415;BMP280;57837;52.064;113.478;2023-04-03T01:12:59;94560.78;;;6.28
70415;BMP280;57837;52.064;113.478;2023-04-03T01:16:05;94555.78;;;6.03
70415;BMP280;57837;52.064;113.478;2023-04-03T01:19:14;94555.00;;;7.26
70415;BMP280;57837;52.064;113.478;2023-04-03T01:22:26;94546.94;;;7.50
70415;BMP280;57837;52.064;113.478;2023-04-03T01:25:34;94556.56;;;7.16
70415;BMP280;57837;52.064;113.478;2023-04-03T01:28:38;94544.69;;;7.26
70415;BMP280;57837;52.064;113.478;2023-04-03T01:31:56;94555.75;;;8.26
70415;BMP280;57837;52.064;113.478;2023-04-03T01:34:59;94552.66;;;8.55
70415;BMP280;57837;52.064;113.478;2023-04-03T01:38:06;94547.19;;;8.10
70415;BMP280;57837;52.064;113.478;2023-04-03T01:41:10;94545.44;;;7.22
70415;BMP280;57837;52.064;113.478;2023-04-03T01:44:15;94542.19;;;7.49
70415;BMP280;57837;52.064;113.478;2023-04-03T01:47:19;94550.59;;;8.03
70415;BMP280;57837;52.064;113.478;2023-04-03T01:50:24;94553.28;;;7.69
70415;BMP280;57837;52.064;113.478;2023-04-03T01:53:28;94565.44;;;8.42
70415;BMP280;57837;52.064;113.478;2023-04-03T01:56:32;94546.34;;;8.16
70415;BMP280;57837;52.064;113.478;2023-04-03T01:59:35;94556.75;;;7.86
70415;BMP280;57837;52.064;113.478;2023-04-03T02:02:40;94550.28;;;7.47
70415;BMP280;57837;52.064;113.478;2023-04-03T02:05:44;94538.75;;;6.98
70415;BMP280;57837;52.064;113.478;2023-04-03T02:08:48;94545.50;;;6.06
70415;BMP280;57837;52.064;113.478;2023-04-03T02:11:52;94538.44;;;5.69
70415;BMP280;57837;52.064;113.478;2023-04-03T02:14:56;94561.22;;;5.60
70415;BMP280;57837;52.064;113.478;2023-04-03T02:18:01;94544.59;;;5.06
70415;BMP280;57837;52.064;113.478;2023-04-03T02:21:09;94569.25;;;5.69
70415;BMP280;57837;52.064;113.478;2023-04-03T02:24:13;94541.47;;;5.47
70415;BMP280;57837;52.064;113.478;2023-04-03T02:27:17;94546.53;;;4.63
70415;BMP280;57837;52.064;113.478;2023-04-03T02:30:22;94546.88;;;4.79
70415;BMP280;57837;52.064;113.478;2023-04-03T02:33:25;94541.63;;;5.18
70415;BMP280;57837;52.064;113.478;2023-04-03T02:36:29;94540.91;;;5.84
70415;BMP280;57837;52.064;113.478;2023-04-03T02:39:37;94532.75;;;5.30
70415;BMP280;57837;52.064;113.478;2023-04-03T02:42:41;94527.50;;;4.64
70415;BMP280;57837;52.064;113.478;2023-04-03T02:45:44;94533.75;;;4.03
70415;BMP280;57837;52.064;113.478;2023-04-03T02:48:48;94544.31;;;4.86
70415;BMP280;57837;52.064;113.478;2023-04-03T02:51:53;94531.84;;;5.68
70415;BMP280;57837;52.064;113.478;2023-04-03T02:54:56;94533.56;;;5.86
70415;BMP280;57837;52.064;113.478;2023-04-03T02:57:59;94524.94;;;6.06
70415;BMP280;57837;52.064;113.478;2023-04-03T03:01:03;94524.91;;;6.85
70415;BMP280;57837;52.064;113.478;2023-04-03T03:04:07;94515.13;;;6.76
70415;BMP280;57837;52.064;113.478;2023-04-03T03:07:11;94520.41;;;6.25
70415;BMP280;57837;52.064;113.478;2023-04-03T03:10:15;94526.88;;;5.40
70415;BMP280;57837;52.064;113.478;2023-04-03T03:13:20;94530.28;;;5.82
70415;BMP280;57837;52.064;113.478;2023-04-03T03:16:23;94512.91;;;6.00
70415;BMP280;57837;52.064;113.478;2023-04-03T03:19:27;94508.81;;;5.47
70415;BMP280;57837;52.064;113.478;2023-04-03T03:22:31;94534.69;;;5.74
70415;BMP280;57837;52.064;113.478;2023-04-03T03:25:41;94514.84;;;5.82
70415;BMP280;57837;52.064;113.478;2023-04-03T03:28:44;94509.59;;;5.99
70415;BMP280;57837;52.064;113.478;2023-04-03T03:31:48;94513.16;;;6.13
70415;BMP280;57837;52.064;113.478;2023-04-03T03:34:52;94511.53;;;5.85
70415;BMP280;57837;52.064;113.478;2023-04-03T03:37:55;94508.28;;;5.77
70415;BMP280;57837;52.064;113.478;2023-04-03T03:40:59;94500.44;;;5.98
70415;BMP280;57837;52.064;113.478;2023-04-03T03:44:05;94494.38;;;6.57
70415;BMP280;57837;52.064;113.478;2023-04-03T03:47:08;94496.16;;;6.60
70415;BMP280;57837;52.064;113.478;2023-04-03T03:50:14;94496.63;;;6.14
70415;BMP280;57837;52.064;113.478;2023-04-03T03:53:18;94503.63;;;6.10
70415;BMP280;57837;52.064;113.478;2023-04-03T03:56:26;94499.00;;;5.35
70415;BMP280;57837;52.064;113.478;2023-04-03T03:59:30;94504.88;;;5.36
70415;BMP280;57837;52.064;113.478;2023-04-03T04:02:34;94491.66;;;6.33
70415;BMP280;57837;52.064;113.478;2023-04-03T04:05:38;94495.63;;;6.79
70415;BMP280;57837;52.064;113.478;2023-04-03T04:08:42;94502.88;;;6.84
70415;BMP280;57837;52.064;113.478;2023-04-03T04:11:47;94494.28;;;6.64
70415;BMP280;57837;52.064;113.478;2023-04-03T04:14:52;94492.81;;;6.66
70415;BMP280;57837;52.064;113.478;2023-04-03T04:17:56;94490.22;;;6.66
70415;BMP280;57837;52.064;113.478;2023-04-03T04:20:59;94502.69;;;6.30
70415;BMP280;57837;52.064;113.478;2023-04-03T04:24:05;94498.78;;;6.19
70415;BMP280;57837;52.064;113.478;2023-04-03T04:27:10;94513.13;;;5.72
70415;BMP280;57837;52.064;113.478;2023-04-03T04:30:14;94505.66;;;5.22
70415;BMP280;57837;52.064;113.478;2023-04-03T04:33:20;94500.56;;;5.81
70415;BMP280;57837;52.064;113.478;2023-04-03T04:36:24;94498.69;;;5.22
70415;BMP280;57837;52.064;113.478;2023-04-03T04:39:28;94499.63;;;5.53
70415;BMP280;57837;52.064;113.478;2023-04-03T04:42:32;94496.81;;;5.37
70415;BMP280;57837;52.064;113.478;2023-04-03T04:45:36;94512.84;;;4.65
70415;BMP280;57837;52.064;113.478;2023-04-03T04:48:42;94507.75;;;4.22
70415;BMP280;57837;52.064;113.478;2023-04-03T04:51:46;94515.44;;;4.18
70415;BMP280;57837;52.064;113.478;2023-04-03T04:55:00;94518.41;;;4.10
70415;BMP280;57837;52.064;113.478;2023-04-03T04:58:04;94508.50;;;4.33
70415;BMP280;57837;52.064;113.478;2023-04-03T05:01:10;94507.06;;;4.36
70415;BMP280;57837;52.064;113.478;2023-04-03T05:04:25;94515.44;;;4.18
70415;BMP280;57837;52.064;113.478;2023-04-03T05:07:36;94499.75;;;4.09
70415;BMP280;57837;52.064;113.478;2023-04-03T05:10:39;94494.59;;;4.02
70415;BMP280;57837;52.064;113.478;2023-04-03T05:13:45;94503.72;;;3.64
70415;BMP280;57837;52.064;113.478;2023-04-03T05:16:49;94511.03;;;3.83
70415;BMP280;57837;52.064;113.478;2023-04-03T05:19:59;94493.13;;;3.76
70415;BMP280;57837;52.064;113.478;2023-04-03T05:23:03;94500.06;;;3.86
70415;BMP280;57837;52.064;113.478;2023-04-03T05:26:10;94487.28;;;3.97
70415;BMP280;57837;52.064;113.478;2023-04-03T05:29:14;94490.53;;;4.51
70415;BMP280;57837;52.064;113.478;2023-04-03T05:32:18;94494.88;;;4.68
70415;BMP280;57837;52.064;113.478;2023-04-03T05:35:26;94486.88;;;4.45
70415;BMP280;57837;52.064;113.478;2023-04-03T05:38:33;94497.16;;;4.02
70415;BMP280;57837;52.064;113.478;2023-04-03T05:41:36;94486.56;;;3.72
70415;BMP280;57837;52.064;113.478;2023-04-03T05:44:40;94486.56;;;3.72
70415;BMP280;57837;52.064;113.478;2023-04-03T05:47:44;94472.19;;;4.63
70415;BMP280;57837;52.064;113.478;2023-04-03T05:50:48;94461.50;;;4.86
70415;BMP280;57837;52.064;113.478;2023-04-03T05:54:10;94484.25;;;4.66
70415;BMP280;57837;52.064;113.478;2023-04-03T05:57:16;94470.44;;;4.28
70415;BMP280;57837;52.064;113.478;2023-04-03T06:00:21;94484.72;;;3.90
70415;BMP280;57837;52.064;113.478;2023-04-03T06:03:35;94465.28;;;4.17
70415;BMP280;57837;52.064;113.478;2023-04-03T06:06:54;94471.16;;;4.21
70415;BMP280;57837;52.064;113.478;2023-04-03T06:10:00;94486.88;;;4.48
70415;BMP280;57837;52.064;113.478;2023-04-03T06:13:07;94479.56;;;4.22
70415;BMP280;57837;52.064;113.478;2023-04-03T06:16:15;94485.06;;;3.67
70415;BMP280;57837;52.064;113.478;2023-04-03T06:19:20;94471.16;;;3.65
70415;BMP280;57837;52.064;113.478;2023-04-03T06:22:27;94473.69;;;3.40
70415;BMP280;57837;52.064;113.478;2023-04-03T06:25:33;94460.19;;;3.54
70415;BMP280;57837;52.064;113.478;2023-04-03T06:28:37;94465.97;;;3.33
70415;BMP280;57837;52.064;113.478;2023-04-03T06:31:40;94463.81;;;3.38
70415;BMP280;57837;52.064;113.478;2023-04-03T06:34:44;94458.31;;;3.33
70415;BMP280;57837;52.064;113.478;2023-04-03T06:37:49;94456.84;;;3.21
70415;BMP280;57837;52.064;113.478;2023-04-03T06:40:52;94432.75;;;3.36
70415;BMP280;57837;52.064;113.478;2023-04-03T06:43:57;94453.09;;;2.97
70415;BMP280;57837;52.064;113.478;2023-04-03T06:47:01;94449.81;;;3.04
70415;BMP280;57837;52.064;113.478;2023-04-03T06:50:05;94463.41;;;3.29
70415;BMP280;57837;52.064;113.478;2023-04-03T06:53:10;94448.06;;;3.19
70415;BMP280;57837;52.064;113.478;2023-04-03T06:56:14;94453.94;;;3.37
70415;BMP280;57837;52.064;113.478;2023-04-03T06:59:18;94454.19;;;3.03
70415;BMP280;57837;52.064;113.478;2023-04-03T07:02:23;94458.47;;;2.74
70415;BMP280;57837;52.064;113.478;2023-04-03T07:05:27;94465.97;;;2.39
70415;BMP280;57837;52.064;113.478;2023-04-03T07:08:31;94449.09;;;2.31
70415;BMP280;57837;52.064;113.478;2023-04-03T07:11:35;94464.53;;;2.49
70415;BMP280;57837;52.064;113.478;2023-04-03T07:14:39;94437.97;;;2.64
70415;BMP280;57837;52.064;113.478;2023-04-03T07:17:43;94447.88;;;2.76
70415;BMP280;57837;52.064;113.478;2023-04-03T07:20:47;94449.47;;;3.09
70415;BMP280;57837;52.064;113.478;2023-04-03T07:23:50;94437.38;;;2.95
70415;BMP280;57837;52.064;113.478;2023-04-03T07:26:54;94444.31;;;2.95
70415;BMP280;57837;52.064;113.478;2023-04-03T07:29:58;94450.81;;;2.78
70415;BMP280;57837;52.064;113.478;2023-04-03T07:33:02;94455.72;;;2.35
70415;BMP280;57837;52.064;113.478;2023-04-03T07:36:07;94453.53;;;2.37
70415;BMP280;57837;52.064;113.478;2023-04-03T07:39:11;94429.41;;;2.31
70415;BMP280;57837;52.064;113.478;2023-04-03T07:42:15;94438.88;;;2.24
70415;BMP280;57837;52.064;113.478;2023-04-03T07:45:19;94456.97;;;2.04
70415;BMP280;57837;52.064;113.478;2023-04-03T07:48:25;94444.16;;;2.01
70415;BMP280;57837;52.064;113.478;2023-04-03T07:51:28;94434.72;;;2.05
70415;BMP280;57837;52.064;113.478;2023-04-03T07:54:33;94414.72;;;2.14
70415;BMP280;57837;52.064;113.478;2023-04-03T07:57:38;94419.16;;;2.24
70415;BMP280;57837;52.064;113.478;2023-04-03T08:00:42;94434.63;;;2.49
70415;BMP280;57837;52.064;113.478;2023-04-03T08:03:45;94428.13;;;2.62
70415;BMP280;57837;52.064;113.478;2023-04-03T08:06:50;94438.75;;;2.71
70415;BMP280;57837;52.064;113.478;2023-04-03T08:09:54;94427.69;;;2.46
70415;BMP280;57837;52.064;113.478;2023-04-03T08:12:58;94424.38;;;2.42
70415;BMP280;57837;52.064;113.478;2023-04-03T08:16:10;94444.94;;;2.63
70415;BMP280;57837;52.064;113.478;2023-04-03T08:19:15;94449.31;;;2.73
70415;BMP280;57837;52.064;113.478;2023-04-03T08:22:28;94447.53;;;2.77
70415;BMP280;57837;52.064;113.478;2023-04-03T08:25:31;94443.13;;;2.71
70415;BMP280;57837;52.064;113.478;2023-04-03T08:28:34;94448.56;;;2.59
70415;BMP280;57837;52.064;113.478;2023-04-03T08:31:38;94452.56;;;2.56
70415;BMP280;57837;52.064;113.478;2023-04-03T08:34:42;94446.28;;;2.43
70415;BMP280;57837;52.064;113.478;2023-04-03T08:37:45;94452.84;;;2.40
70415;BMP280;57837;52.064;113.478;2023-04-03T08:41:20;94435.34;;;2.46
70415;BMP280;57837;52.064;113.478;2023-04-03T08:48:26;94444.19;;;2.04
70415;BMP280;57837;52.064;113.478;2023-04-03T08:51:31;94435.84;;;2.07
70415;BMP280;57837;52.064;113.478;2023-04-03T08:55:01;94445.38;;;2.14
70415;BMP280;57837;52.064;113.478;2023-04-03T08:58:03;94438.97;;;1.87
70415;BMP280;57837;52.064;113.478;2023-04-03T09:01:38;94448.72;;;1.41
70415;BMP280;57837;52.064;113.478;2023-04-03T09:04:42;94441.22;;;1.18
70415;BMP280;57837;52.064;113.478;2023-04-03T09:07:57;94438.38;;;1.23
70415;BMP280;57837;52.064;113.478;2023-04-03T09:14:38;94435.59;;;1.35
70415;BMP280;57837;52.064;113.478;2023-04-03T09:17:53;94445.44;;;1.36
70415;BMP280;57837;52.064;113.478;2023-04-03T09:21:19;94448.88;;;1.18
70415;BMP280;57837;52.064;113.478;2023-04-03T09:24:24;94442.16;;;1.02
70415;BMP280;57837;52.064;113.478;2023-04-03T09:27:28;94438.41;;;0.93
70415;BMP280;57837;52.064;113.478;2023-04-03T09:30:56;94437.75;;;0.69
70415;BMP280;57837;52.064;113.478;2023-04-03T09:34:03;94429.31;;;0.65
70415;BMP280;57837;52.064;113.478;2023-04-03T09:37:08;94439.22;;;0.71
70415;BMP280;57837;52.064;113.478;2023-04-03T09:43:51;94441.56;;;0.56
70415;BMP280;57837;52.064;113.478;2023-04-03T09:46:55;94436.47;;;0.56
70415;BMP280;57837;52.064;113.478;2023-04-03T09:53:43;94441.50;;;0.23
70415;BMP280;57837;52.064;113.478;2023-04-03T09:56:51;94461.47;;;0.21
70415;BMP280;57837;52.064;113.478;2023-04-03T10:00:23;94454.69;;;0.06
70415;BMP280;57837;52.064;113.478;2023-04-03T10:04:16;94460.97;;;-0.11
70415;BMP280;57837;52.064;113.478;2023-04-03T10:07:40;94472.28;;;-0.31
70415;BMP280;57837;52.064;113.478;2023-04-03T10:11:15;94475.44;;;-0.35
70415;BMP280;57837;52.064;113.478;2023-04-03T10:14:57;94472.56;;;-0.33
70415;BMP280;57837;52.064;113.478;2023-04-03T10:18:05;94469.03;;;-0.48
70415;BMP280;57837;52.064;113.478;2023-04-03T10:22:04;94468.44;;;-0.60
70415;BMP280;57837;52.064;113.478;2023-04-03T10:26:26;94475.13;;;-0.72
70415;BMP280;57837;52.064;113.478;2023-04-03T10:37:26;94467.38;;;-1.17
70415;BMP280;57837;52.064;113.478;2023-04-03T10:55:20;94485.50;;;-1.50
70415;BMP280;57837;52.064;113.478;2023-04-03T10:58:40;94481.97;;;-1.61
70415;BMP280;57837;52.064;113.478;2023-04-03T11:05:44;94490.59;;;-1.66
70415;BMP280;57837;52.064;113.478;2023-04-03T11:08:51;94481.75;;;-1.72
70415;BMP280;57837;52.064;113.478;2023-04-03T11:15:20;94494.34;;;-1.76
70415;BMP280;57837;52.064;113.478;2023-04-03T11:18:59;94497.53;;;-1.79
70415;BMP280;57837;52.064;113.478;2023-04-03T11:22:48;94509.59;;;-1.88
70415;BMP280;57837;52.064;113.478;2023-04-03T11:26:09;94505.94;;;-1.90
70415;BMP280;57837;52.064;113.478;2023-04-03T11:29:40;94518.69;;;-1.87
70415;BMP280;57837;52.064;113.478;2023-04-03T11:36:53;94521.22;;;-1.87
70415;BMP280;57837;52.064;113.478;2023-04-03T11:40:03;94519.19;;;-1.97
70415;BMP280;57837;52.064;113.478;2023-04-03T11:43:23;94528.41;;;-2.05
70415;BMP280;57837;52.064;113.478;2023-04-03T11:46:54;94524.00;;;-2.08
70415;BMP280;57837;52.064;113.478;2023-04-03T11:50:46;94536.06;;;-2.17
70415;BMP280;57837;52.064;113.478;2023-04-03T11:53:50;94536.41;;;-2.18
70415;BMP280;57837;52.064;113.478;2023-04-03T11:58:11;94556.28;;;-2.20
70415;BMP280;57837;52.064;113.478;2023-04-03T12:01:10;94558.72;;;-2.24
70415;BMP280;57837;52.064;113.478;2023-04-03T12:04:17;94560.75;;;-2.29
70415;BMP280;57837;52.064;113.478;2023-04-03T12:07:22;94572.88;;;-2.35
70415;BMP280;57837;52.064;113.478;2023-04-03T12:10:27;94575.78;;;-2.49
70415;BMP280;57837;52.064;113.478;2023-04-03T12:17:02;94586.47;;;-2.55
70415;BMP280;57837;52.064;113.478;2023-04-03T12:27:28;94611.34;;;-2.70
70415;BMP280;57837;52.064;113.478;2023-04-03T12:31:01;94617.31;;;-2.78
70415;BMP280;57837;52.064;113.478;2023-04-03T12:45:43;94630.75;;;-2.98
70415;BMP280;57837;52.064;113.478;2023-04-03T12:48:31;94641.31;;;-2.96
70415;BMP280;57837;52.064;113.478;2023-04-03T12:51:59;94645.97;;;-2.98
70415;BMP280;57837;52.064;113.478;2023-04-03T12:55:27;94642.94;;;-2.91
70415;BMP280;57837;52.064;113.478;2023-04-03T12:58:31;94653.25;;;-2.96
70415;BMP280;57837;52.064;113.478;2023-04-03T13:01:37;94651.13;;;-3.07
70415;BMP280;57837;52.064;113.478;2023-04-03T13:04:41;94663.38;;;-3.09
70415;BMP280;57837;52.064;113.478;2023-04-03T13:08:12;94653.13;;;-3.12
70415;BMP280;57837;52.064;113.478;2023-04-03T13:11:21;94669.06;;;-3.12
70415;BMP280;57837;52.064;113.478;2023-04-03T13:14:28;94666.63;;;-3.20
70415;BMP280;57837;52.064;113.478;2023-04-03T13:17:41;94661.03;;;-3.14
70415;BMP280;57837;52.064;113.478;2023-04-03T13:20:48;94665.56;;;-3.19
70415;BMP280;57837;52.064;113.478;2023-04-03T13:23:57;94663.66;;;-3.22
70415;BMP280;57837;52.064;113.478;2023-04-03T13:27:41;94663.88;;;-3.15
70415;BMP280;57837;52.064;113.478;2023-04-03T13:31:22;94655.34;;;-3.11
70415;BMP280;57837;52.064;113.478;2023-04-03T13:34:51;94667.16;;;-3.15
70415;BMP280;57837;52.064;113.478;2023-04-03T13:41:34;94664.78;;;-3.32
70415;BMP280;57837;52.064;113.478;2023-04-03T13:44:39;94673.31;;;-3.37
70415;BMP280;57837;52.064;113.478;2023-04-03T13:47:45;94671.53;;;-3.36
70415;BMP280;57837;52.064;113.478;2023-04-03T13:54:33;94688.44;;;-3.49
70415;BMP280;57837;52.064;113.478;2023-04-03T13:57:50;94694.00;;;-3.55
70415;BMP280;57837;52.064;113.478;2023-04-03T14:01:00;94690.50;;;-3.63
70415;BMP280;57837;52.064;113.478;2023-04-03T14:04:53;94702.53;;;-3.60
70415;BMP280;57837;52.064;113.478;2023-04-03T14:08:01;94694.72;;;-3.67
70415;BMP280;57837;52.064;113.478;2023-04-03T14:11:05;94692.06;;;-3.71
70415;BMP280;57837;52.064;113.478;2023-04-03T14:14:15;94698.63;;;-3.78
70415;BMP280;57837;52.064;113.478;2023-04-03T14:17:21;94696.06;;;-3.90
70415;BMP280;57837;52.064;113.478;2023-04-03T14:20:27;94700.41;;;-4.00
70415;BMP280;57837;52.064;113.478;2023-04-03T14:23:30;94701.94;;;-4.07
70415;BMP280;57837;52.064;113.478;2023-04-03T14:26:37;94704.38;;;-4.11
70415;BMP280;57837;52.064;113.478;2023-04-03T14:29:41;94705.22;;;-4.07
70415;BMP280;57837;52.064;113.478;2023-04-03T14:32:44;94699.84;;;-4.05
70415;BMP280;57837;52.064;113.478;2023-04-03T14:35:48;94707.59;;;-4.10
70415;BMP280;57837;52.064;113.478;2023-04-03T14:38:52;94705.41;;;-4.12
70415;BMP280;57837;52.064;113.478;2023-04-03T14:41:56;94709.72;;;-4.12
70415;BMP280;57837;52.064;113.478;2023-04-03T14:45:00;94715.84;;;-4.22
70415;BMP280;57837;52.064;113.478;2023-04-03T14:48:04;94711.13;;;-4.32
70415;BMP280;57837;52.064;113.478;2023-04-03T14:51:12;94708.78;;;-4.37
70415;BMP280;57837;52.064;113.478;2023-04-03T14:54:18;94710.53;;;-4.38
70415;BMP280;57837;52.064;113.478;2023-04-03T14:57:25;94710.44;;;-4.41
70415;BMP280;57837;52.064;113.478;2023-04-03T15:00:30;94711.41;;;-4.63
70415;BMP280;57837;52.064;113.478;2023-04-03T15:03:34;94706.34;;;-4.63
70415;BMP280;57837;52.064;113.478;2023-04-03T15:06:39;94700.44;;;-4.67
70415;BMP280;57837;52.064;113.478;2023-04-03T15:09:44;94706.72;;;-4.82
70415;BMP280;57837;52.064;113.478;2023-04-03T15:12:48;94717.72;;;-4.86
70415;BMP280;57837;52.064;113.478;2023-04-03T15:15:52;94711.78;;;-4.90
70415;BMP280;57837;52.064;113.478;2023-04-03T15:18:57;94710.00;;;-4.99
70415;BMP280;57837;52.064;113.478;2023-04-03T15:22:00;94706.16;;;-4.96
70415;BMP280;57837;52.064;113.478;2023-04-03T15:25:04;94706.59;;;-4.94
70415;BMP280;57837;52.064;113.478;2023-04-03T15:28:13;94714.75;;;-4.97
70415;BMP280;57837;52.064;113.478;2023-04-03T15:31:20;94704.84;;;-5.02
70415;BMP280;57837;52.064;113.478;2023-04-03T15:34:25;94712.53;;;-4.99
70415;BMP280;57837;52.064;113.478;2023-04-03T15:37:28;94700.97;;;-5.00
70415;BMP280;57837;52.064;113.478;2023-04-03T15:40:32;94707.94;;;-5.05
70415;BMP280;57837;52.064;113.478;2023-04-03T15:43:38;94697.56;;;-5.04
70415;BMP280;57837;52.064;113.478;2023-04-03T15:46:46;94698.91;;;-5.06
70415;BMP280;57837;52.064;113.478;2023-04-03T15:49:54;94704.38;;;-5.13
70415;BMP280;57837;52.064;113.478;2023-04-03T15:52:59;94700.06;;;-5.12
70415;BMP280;57837;52.064;113.478;2023-04-03T15:56:04;94700.38;;;-5.14
70415;BMP280;57837;52.064;113.478;2023-04-03T15:59:08;94694.59;;;-5.14
70415;BMP280;57837;52.064;113.478;2023-04-03T16:02:12;94689.97;;;-5.12
70415;BMP280;57837;52.064;113.478;2023-04-03T16:05:17;94701.41;;;-5.15
70415;BMP280;57837;52.064;113.478;2023-04-03T16:08:21;94702.47;;;-5.16
70415;BMP280;57837;52.064;113.478;2023-04-03T16:11:25;94703.69;;;-5.22
70415;BMP280;57837;52.064;113.478;2023-04-03T16:14:28;94698.75;;;-5.27
70415;BMP280;57837;52.064;113.478;2023-04-03T16:17:33;94705.75;;;-5.33
70415;BMP280;57837;52.064;113.478;2023-04-03T16:20:38;94702.03;;;-5.35
70415;BMP280;57837;52.064;113.478;2023-04-03T16:23:43;94693.59;;;-5.39
70415;BMP280;57837;52.064;113.478;2023-04-03T16:26:47;94696.13;;;-5.48
70415;BMP280;57837;52.064;113.478;2023-04-03T16:29:51;94690.00;;;-5.47
70415;BMP280;57837;52.064;113.478;2023-04-03T16:32:54;94691.81;;;-5.56
70415;BMP280;57837;52.064;113.478;2023-04-03T16:35:59;94688.38;;;-5.60
70415;BMP280;57837;52.064;113.478;2023-04-03T16:39:03;94691.66;;;-5.60
70415;BMP280;57837;52.064;113.478;2023-04-03T16:42:07;94690.78;;;-5.55
70415;BMP280;57837;52.064;113.478;2023-04-03T16:45:12;94696.69;;;-5.60
70415;BMP280;57837;52.064;113.478;2023-04-03T16:48:16;94698.66;;;-5.57
70415;BMP280;57837;52.064;113.478;2023-04-03T16:51:19;94695.09;;;-5.56
70415;BMP280;57837;52.064;113.478;2023-04-03T16:54:22;94688.84;;;-5.58
70415;BMP280;57837;52.064;113.478;2023-04-03T16:57:26;94686.00;;;-5.65
70415;BMP280;57837;52.064;113.478;2023-04-03T17:00:31;94671.03;;;-5.70
70415;BMP280;57837;52.064;113.478;2023-04-03T17:03:34;94667.47;;;-5.69
70415;BMP280;57837;52.064;113.478;2023-04-03T17:06:39;94662.75;;;-5.71
70415;BMP280;57837;52.064;113.478;2023-04-03T17:09:43;94675.03;;;-5.78
70415;BMP280;57837;52.064;113.478;2023-04-03T17:12:46;94661.25;;;-5.80
70415;BMP280;57837;52.064;113.478;2023-04-03T17:15:50;94671.63;;;-5.82
70415;BMP280;57837;52.064;113.478;2023-04-03T17:18:54;94667.47;;;-5.87
70415;BMP280;57837;52.064;113.478;2023-04-03T17:21:59;94664.53;;;-5.89
70415;BMP280;57837;52.064;113.478;2023-04-03T17:25:03;94666.16;;;-5.84
70415;BMP280;57837;52.064;113.478;2023-04-03T17:28:07;94665.41;;;-5.84
70415;BMP280;57837;52.064;113.478;2023-04-03T17:31:10;94663.19;;;-5.86
70415;BMP280;57837;52.064;113.478;2023-04-03T17:34:14;94648.47;;;-5.93
70415;BMP280;57837;52.064;113.478;2023-04-03T17:37:17;94654.72;;;-5.99
70415;BMP280;57837;52.064;113.478;2023-04-03T17:40:21;94657.81;;;-6.02
70415;BMP280;57837;52.064;113.478;2023-04-03T17:43:24;94655.44;;;-6.07
70415;BMP280;57837;52.064;113.478;2023-04-03T17:46:27;94645.50;;;-6.12
70415;BMP280;57837;52.064;113.478;2023-04-03T17:49:34;94643.00;;;-6.12
70415;BMP280;57837;52.064;113.478;2023-04-03T17:52:37;94645.50;;;-6.12
70415;BMP280;57837;52.064;113.478;2023-04-03T17:55:40;94651.59;;;-6.13
70415;BMP280;57837;52.064;113.478;2023-04-03T17:58:43;94646.09;;;-6.15
70415;BMP280;57837;52.064;113.478;2023-04-03T18:01:47;94645.97;;;-6.10
70415;BMP280;57837;52.064;113.478;2023-04-03T18:04:51;94650.25;;;-6.10
70415;BMP280;57837;52.064;113.478;2023-04-03T18:07:56;94647.00;;;-6.11
70415;BMP280;57837;52.064;113.478;2023-04-03T18:11:00;94633.38;;;-6.10
70415;BMP280;57837;52.064;113.478;2023-04-03T18:14:06;94637.06;;;-6.07
70415;BMP280;57837;52.064;113.478;2023-04-03T18:17:10;94633.66;;;-6.11
70415;BMP280;57837;52.064;113.478;2023-04-03T18:20:14;94634.81;;;-6.18
70415;BMP280;57837;52.064;113.478;2023-04-03T18:23:19;94624.59;;;-6.21
70415;BMP280;57837;52.064;113.478;2023-04-03T18:26:25;94619.09;;;-6.23
70415;BMP280;57837;52.064;113.478;2023-04-03T18:29:33;94620.28;;;-6.29
70415;BMP280;57837;52.064;113.478;2023-04-03T18:32:37;94616.56;;;-6.40
70415;BMP280;57837;52.064;113.478;2023-04-03T18:35:40;94622.63;;;-6.41
70415;BMP280;57837;52.064;113.478;2023-04-03T18:38:45;94622.19;;;-6.43
70415;BMP280;57837;52.064;113.478;2023-04-03T18:41:49;94616.88;;;-6.42
70415;BMP280;57837;52.064;113.478;2023-04-03T18:44:55;94612.97;;;-6.48
70415;BMP280;57837;52.064;113.478;2023-04-03T18:48:00;94616.69;;;-6.45
70415;BMP280;57837;52.064;113.478;2023-04-03T18:51:04;94614.59;;;-6.52
70415;BMP280;57837;52.064;113.478;2023-04-03T18:54:07;94616.66;;;-6.63
70415;BMP280;57837;52.064;113.478;2023-04-03T18:57:11;94612.03;;;-6.69
70415;BMP280;57837;52.064;113.478;2023-04-03T19:00:17;94607.28;;;-6.71
70415;BMP280;57837;52.064;113.478;2023-04-03T19:03:21;94612.44;;;-6.76